Weather History for Willmar, MN

Change the Weather History Date:

Monday, January 13, 2014

  Actual Average (KLJF) Record (KLJF)
Temperature  
Mean Temperature 26 °F -  
Max Temperature 32 °F 21 °F 48 °F (1987)
Min Temperature 21 °F 2 °F -23 °F (2009)
Degree Days  
Heating Degree Days 38    
Moisture  
Dew Point 22 °F    
Average Humidity 80    
Maximum Humidity 93    
Minimum Humidity 69    
Precipitation  
Precipitation 0.00 in - - ()
Sea Level Pressure  
Sea Level Pressure 29.62 in    
Wind  
Wind Speed 12 mph (West)    
Max Wind Speed 25 mph    
Max Gust Speed 32 mph    
Visibility 10 miles    
Events      
Averages and records for this station are not official NWS values.
T = Trace of Precipitation, MM = Missing Value Source: NWS Daily Summary

Daily Weather History Graph

Daily Weather History Graph

Search for Another Location

Airport:

Trip Planner

Search our weather history database for the weather conditions in past years. The results will help you decide how hot, cold, wet, or windy it might be!

Date:

Astronomy

Jan. 13, 2014 Rise Set
Actual Time 7:56 AM CST 5:02 PM CST
Civil Twilight 7:23 AM CST 5:35 PM CST
Nautical Twilight 6:47 AM CST 6:11 PM CST
Astronomical Twilight 6:11 AM CST 6:47 PM CST
Moon 3:19 PM CST (1/13) 5:45 AM CST (1/13)
Length of Visible Light 10h 11m
Length of Day
9h 05m
Waxing Gibbous, 95% of the Moon is Illuminated
Jan 13
Waxing Gibbous
Jan 15
Full
Jan 23
Last Quarter
Jan 30
New
Feb 6
First Quarter

Hourly Weather History & Observations

Time (CST) Temp. Windchill Dew Point Humidity Pressure Visibility Wind Dir Wind Speed Gust Speed Precip Events Conditions
12:21 AM 30.2 °F 22.6 °F 26.6 °F 86% 29.53 in 10.0 mi West 8.1 mph - N/A   Clear
1:01 AM 30.2 °F 20.8 °F 26.6 °F 86% 29.55 in 10.0 mi WNW 11.5 mph - N/A   Clear
1:41 AM 30.2 °F 18.5 °F 26.6 °F 86% 29.56 in 10.0 mi NW 17.3 mph - N/A   Clear
2:01 AM 30.2 °F 18.5 °F 26.6 °F 86% 29.57 in 10.0 mi NW 17.3 mph - N/A   Mostly Cloudy
2:21 AM 32.0 °F 20.5 °F 26.6 °F 80% 29.58 in 10.0 mi NW 18.4 mph 24.2 mph N/A   Overcast
2:41 AM 30.2 °F 18.1 °F 26.6 °F 86% 29.59 in 10.0 mi NW 18.4 mph 27.6 mph N/A   Mostly Cloudy
3:01 AM 30.2 °F 16.5 °F 23.0 °F 75% 29.60 in 10.0 mi NW 24.2 mph 32.2 mph N/A   Mostly Cloudy
3:21 AM 28.4 °F 13.8 °F 21.2 °F 74% 29.61 in 10.0 mi NW 25.3 mph - N/A   Overcast
3:41 AM 28.4 °F 14.7 °F 19.4 °F 69% 29.62 in 10.0 mi NW 21.9 mph 25.3 mph N/A   Overcast
4:01 AM 28.4 °F 15.4 °F 19.4 °F 69% 29.63 in 10.0 mi NW 19.6 mph 28.8 mph N/A   Overcast
4:21 AM 28.4 °F 17.5 °F 19.4 °F 69% 29.63 in 10.0 mi NW 13.8 mph - N/A   Overcast
4:41 AM 28.4 °F 17.5 °F 21.2 °F 74% 29.63 in 10.0 mi NW 13.8 mph - N/A   Mostly Cloudy
5:01 AM 26.6 °F 14.7 °F 19.4 °F 74% 29.64 in 10.0 mi NW 15.0 mph - N/A   Scattered Clouds
5:21 AM 26.6 °F 16.8 °F 21.2 °F 80% 29.64 in 10.0 mi NW 10.4 mph - N/A   Clear
5:41 AM 26.6 °F 16.2 °F 19.4 °F 74% 29.64 in 10.0 mi WNW 11.5 mph - N/A   Clear
6:01 AM 24.8 °F 13.4 °F 19.4 °F 80% 29.65 in 10.0 mi WNW 12.7 mph - N/A   Clear
6:21 AM 24.8 °F 12.9 °F 19.4 °F 80% 29.65 in 10.0 mi WNW 13.8 mph - N/A   Clear
7:01 AM 24.8 °F 13.4 °F 19.4 °F 80% 29.67 in 10.0 mi West 12.7 mph - N/A   Clear
7:21 AM 24.8 °F 12.9 °F 17.6 °F 74% 29.68 in 10.0 mi WNW 13.8 mph - N/A   Clear
8:01 AM 21.2 °F 10.1 °F 17.6 °F 86% 29.68 in 10.0 mi WNW 10.4 mph - N/A   Clear
8:21 AM 21.2 °F 10.9 °F 15.8 °F 80% 29.69 in 10.0 mi West 9.2 mph - N/A   Clear
8:41 AM 21.2 °F 13.6 °F 15.8 °F 80% 29.70 in 10.0 mi WNW 5.8 mph - N/A   Clear
9:01 AM 21.2 °F 11.7 °F 15.8 °F 80% 29.69 in 10.0 mi West 8.1 mph - N/A   Clear
9:21 AM 21.2 °F 10.1 °F 17.6 °F 86% 29.69 in 10.0 mi West 10.4 mph - N/A   Clear
9:41 AM 21.2 °F 9.5 °F 17.6 °F 86% 29.69 in 10.0 mi West 11.5 mph - N/A   Clear
10:01 AM 23.0 °F 11.7 °F 17.6 °F 80% 29.69 in 10.0 mi West 11.5 mph - N/A   Clear
10:21 AM 24.8 °F 14.6 °F 17.6 °F 74% 29.70 in 10.0 mi West 10.4 mph - N/A   Clear
10:41 AM 24.8 °F 14.0 °F 17.6 °F 74% 29.70 in 10.0 mi West 11.5 mph - N/A   Clear
11:01 AM 26.6 °F 15.7 °F 19.4 °F 74% 29.69 in 10.0 mi WNW 12.7 mph - N/A   Clear
11:21 AM 26.6 °F 15.2 °F 19.4 °F 74% 29.68 in 10.0 mi West 13.8 mph - N/A   Clear
11:41 AM 26.6 °F 15.7 °F 19.4 °F 74% 29.68 in 10.0 mi WNW 12.7 mph - N/A   Clear
12:01 PM 26.6 °F 15.2 °F 19.4 °F 74% 29.68 in 10.0 mi WNW 13.8 mph 17.3 mph N/A   Clear
12:21 PM 26.6 °F 14.7 °F 19.4 °F 74% 29.67 in 10.0 mi West 15.0 mph - N/A   Clear
12:41 PM 28.4 °F 17.0 °F 21.2 °F 74% 29.65 in 10.0 mi West 15.0 mph - N/A   Clear
1:01 PM 28.4 °F 17.5 °F 19.4 °F 69% 29.65 in 10.0 mi West 13.8 mph - N/A   Clear
1:21 PM 28.4 °F 18.5 °F 19.4 °F 69% 29.65 in 10.0 mi West 11.5 mph - N/A   Clear
2:01 PM 28.4 °F 19.1 °F 21.2 °F 74% 29.64 in 10.0 mi West 10.4 mph - N/A   Clear
2:21 PM 30.2 °F 21.9 °F 21.2 °F 69% 29.65 in 10.0 mi West 9.2 mph - N/A   Clear
2:41 PM 30.2 °F 22.6 °F 21.2 °F 69% 29.64 in 10.0 mi West 8.1 mph - N/A   Clear
3:01 PM 30.2 °F 23.4 °F 21.2 °F 69% 29.64 in 10.0 mi West 6.9 mph - N/A   Clear
3:21 PM 30.2 °F 23.4 °F 21.2 °F 69% 29.64 in 10.0 mi West 6.9 mph - N/A   Clear
3:41 PM 30.2 °F 24.3 °F 23.0 °F 75% 29.64 in 10.0 mi West 5.8 mph - N/A   Clear
4:01 PM 30.2 °F 23.4 °F 23.0 °F 75% 29.63 in 10.0 mi WSW 6.9 mph - N/A   Clear
4:21 PM 30.2 °F 21.9 °F 23.0 °F 75% 29.63 in 10.0 mi WSW 9.2 mph - N/A   Clear
4:41 PM 30.2 °F 22.6 °F 23.0 °F 75% 29.63 in 10.0 mi WSW 8.1 mph - N/A   Scattered Clouds
5:21 PM - - - N/A% 29.62 in 10.0 mi Calm Calm - N/A   Mostly Cloudy
5:41 PM 28.4 °F - 24.8 °F 86% 29.62 in 10.0 mi Calm Calm - N/A   Overcast
6:01 PM 28.4 °F - 26.6 °F 93% 29.62 in 7.0 mi SSE 1.2 mph - N/A   Overcast
6:21 PM 28.4 °F 23.3 °F 26.6 °F 93% 29.60 in 7.0 mi SSE 4.6 mph - N/A   Overcast
6:41 PM 28.4 °F 22.2 °F 26.6 °F 93% 29.59 in 10.0 mi SE 5.8 mph - N/A   Overcast
7:01 PM 28.4 °F 21.2 °F 26.6 °F 93% 29.59 in 10.0 mi ESE 6.9 mph - N/A   Overcast
7:21 PM 28.4 °F 21.2 °F 26.6 °F 93% 29.58 in 10.0 mi East 6.9 mph - N/A   Overcast
7:41 PM 28.4 °F 20.4 °F 26.6 °F 93% 29.57 in 10.0 mi ESE 8.1 mph - N/A   Overcast
8:01 PM 28.4 °F 19.7 °F 26.6 °F 93% 29.56 in 10.0 mi ESE 9.2 mph - N/A   Overcast
8:21 PM 28.4 °F 19.7 °F 24.8 °F 86% 29.54 in 10.0 mi ESE 9.2 mph - N/A   Overcast
8:41 PM 28.4 °F 19.7 °F 24.8 °F 86% 29.53 in 10.0 mi SE 9.2 mph - N/A   Mostly Cloudy
9:01 PM 28.4 °F 21.2 °F 24.8 °F 86% 29.53 in 10.0 mi ESE 6.9 mph - N/A   Scattered Clouds
9:21 PM 28.4 °F 21.2 °F 24.8 °F 86% 29.52 in 10.0 mi ESE 6.9 mph - N/A   Mostly Cloudy
9:41 PM 28.4 °F 20.4 °F 24.8 °F 86% 29.50 in 10.0 mi ESE 8.1 mph - N/A   Overcast
10:01 PM 28.4 °F 20.4 °F 24.8 °F 86% 29.50 in 10.0 mi SE 8.1 mph - N/A   Mostly Cloudy
10:21 PM 28.4 °F 20.4 °F 24.8 °F 86% 29.50 in 10.0 mi SE 8.1 mph - N/A   Scattered Clouds
10:41 PM 28.4 °F 21.2 °F 24.8 °F 86% 29.50 in 10.0 mi SE 6.9 mph - N/A   Clear
11:01 PM 28.4 °F 22.2 °F 24.8 °F 86% 29.49 in 5.0 mi SE 5.8 mph - N/A   Mostly Cloudy
11:21 PM 28.4 °F 23.3 °F 26.6 °F 93% 29.49 in 2.5 mi SE 4.6 mph - N/A   Overcast